createdAt,value
2022-10-03T00:05:00.304Z,8.70
2022-10-03T00:10:34.037Z,8.75
2022-10-03T00:16:04.453Z,8.80
2022-10-03T00:21:35.236Z,8.79
2022-10-03T00:27:07.747Z,8.82
2022-10-03T00:32:48.863Z,8.91
2022-10-03T00:38:18.578Z,9.00
2022-10-03T00:43:51.373Z,9.05
2022-10-03T00:48:56.132Z,9.08
2022-10-03T00:54:15.648Z,9.09
2022-10-03T00:59:23.337Z,9.08
2022-10-03T01:04:44.039Z,9.09
2022-10-03T01:10:35.256Z,9.14
2022-10-03T01:16:00.553Z,9.20
2022-10-03T01:21:08.535Z,9.21
2022-10-03T01:26:44.556Z,9.22
2022-10-03T01:32:11.741Z,9.24
2022-10-03T01:37:32.309Z,9.24
2022-10-03T01:42:43.964Z,9.29
2022-10-03T01:47:55.671Z,9.34
2022-10-03T01:53:13.595Z,9.38
2022-10-03T01:58:31.388Z,9.41
2022-10-03T02:03:37.984Z,9.44
2022-10-03T02:09:05.348Z,9.47
2022-10-03T02:14:24.657Z,9.49
2022-10-03T02:19:42.459Z,9.54
2022-10-03T02:24:57.405Z,9.57
2022-10-03T02:30:14.493Z,9.61
2022-10-03T02:36:01.817Z,9.63
2022-10-03T02:41:39.445Z,9.65
2022-10-03T02:47:18.804Z,9.66
2022-10-03T02:53:07.678Z,9.67
2022-10-03T02:58:42.911Z,9.70
2022-10-03T03:04:15.388Z,9.72
2022-10-03T03:09:43.715Z,9.75
2022-10-03T03:15:34.055Z,9.77
2022-10-03T03:20:48.069Z,9.81
2022-10-03T03:26:15.222Z,9.83
2022-10-03T03:31:29.954Z,9.84
2022-10-03T03:36:48.993Z,9.85
2022-10-03T03:41:56.898Z,9.86
2022-10-03T03:47:10.641Z,9.87
2022-10-03T03:52:35.167Z,9.88
2022-10-03T03:57:44.059Z,9.87
2022-10-03T04:03:05.273Z,9.87
2022-10-03T04:08:28.612Z,9.86
2022-10-03T04:14:08.171Z,9.85
2022-10-03T04:19:26.125Z,9.82
2022-10-03T04:24:30.711Z,9.82
2022-10-03T04:29:56.511Z,9.83
2022-10-03T04:35:04.470Z,9.77
2022-10-03T04:40:25.863Z,9.73
2022-10-03T04:45:45.930Z,9.74
2022-10-03T04:51:07.540Z,9.75
2022-10-03T04:56:44.691Z,9.75
2022-10-03T05:02:18.470Z,9.79
2022-10-03T05:07:42.573Z,9.63
2022-10-03T05:12:59.542Z,9.41
2022-10-03T05:18:26.979Z,9.29
2022-10-03T05:23:38.076Z,9.23
2022-10-03T05:29:04.194Z,9.26
2022-10-03T05:34:17.106Z,9.26
2022-10-03T05:39:56.581Z,9.28
2022-10-03T05:45:21.637Z,9.33
2022-10-03T05:50:29.259Z,9.39
2022-10-03T05:55:42.980Z,9.45
2022-10-03T06:01:00.650Z,9.51
2022-10-03T06:06:20.895Z,9.54
2022-10-03T06:12:03.237Z,9.57
2022-10-03T06:17:10.859Z,9.61
2022-10-03T06:22:32.688Z,9.68
2022-10-03T06:28:12.398Z,9.83
2022-10-03T06:33:56.117Z,9.85
2022-10-03T06:39:52.495Z,9.93
2022-10-03T06:45:16.365Z,10.00
2022-10-03T06:50:28.308Z,10.08
2022-10-03T06:55:46.854Z,10.11
2022-10-03T07:01:13.690Z,10.18
2022-10-03T07:06:46.237Z,10.43
2022-10-03T07:12:20.145Z,10.49
2022-10-03T07:17:50.705Z,10.45
2022-10-03T07:23:17.490Z,10.47
2022-10-03T07:28:49.780Z,10.45
2022-10-03T07:34:27.199Z,10.12
2022-10-03T07:39:47.615Z,10.02
2022-10-03T07:45:31.340Z,10.09
2022-10-03T07:50:56.889Z,10.09
2022-10-03T07:56:26.415Z,9.93
2022-10-03T08:01:48.190Z,10.07
2022-10-03T08:07:28.826Z,10.42
2022-10-03T08:12:45.957Z,10.75
2022-10-03T08:18:32.346Z,10.75
2022-10-03T08:23:49.337Z,10.66
2022-10-03T08:29:13.442Z,10.61
2022-10-03T08:34:36.846Z,10.85
2022-10-03T08:39:57.943Z,11.09
2022-10-03T08:45:30.842Z,11.29
2022-10-03T08:50:48.096Z,11.50
2022-10-03T08:56:27.690Z,11.52
2022-10-03T09:01:40.998Z,11.56
2022-10-03T09:07:18.077Z,11.35
2022-10-03T09:12:45.772Z,11.29
2022-10-03T09:18:01.984Z,11.00
2022-10-03T09:23:41.613Z,10.65
2022-10-03T09:28:50.481Z,10.56
2022-10-03T09:33:55.446Z,10.49
2022-10-03T09:39:08.169Z,10.51
2022-10-03T09:44:54.446Z,10.59
2022-10-03T09:49:56.229Z,10.53
2022-10-03T09:55:14.309Z,10.23
2022-10-03T10:00:24.074Z,10.21
2022-10-03T10:05:54.579Z,10.54
2022-10-03T10:11:12.465Z,11.13
2022-10-03T10:16:23.356Z,11.43
2022-10-03T10:21:34.813Z,11.74
2022-10-03T10:27:11.061Z,11.76
2022-10-03T10:32:43.617Z,11.38
2022-10-03T10:37:55.137Z,11.32
2022-10-03T10:43:18.030Z,11.37
2022-10-03T10:48:44.754Z,11.39
2022-10-03T10:54:20.561Z,11.32
2022-10-03T10:59:53.649Z,11.16
2022-10-03T11:05:23.808Z,11.12
2022-10-03T11:10:34.616Z,11.13
2022-10-03T11:16:20.749Z,11.06
2022-10-03T11:22:13.952Z,11.13
2022-10-03T11:27:39.987Z,11.23
2022-10-03T11:33:33.014Z,10.98
2022-10-03T11:38:41.337Z,10.67
2022-10-03T11:44:15.560Z,10.73
2022-10-03T11:49:55.258Z,10.72
2022-10-03T11:55:15.951Z,10.65
2022-10-03T12:00:21.051Z,10.52
2022-10-03T12:05:47.462Z,10.39
2022-10-03T12:11:18.905Z,10.39
2022-10-03T12:17:16.732Z,10.47
2022-10-03T12:22:53.009Z,10.69
2022-10-03T12:27:57.856Z,10.64
2022-10-03T12:33:21.573Z,10.35
2022-10-03T12:38:51.412Z,10.22
2022-10-03T12:44:19.643Z,10.08
2022-10-03T12:49:30.347Z,10.09
2022-10-03T12:55:05.735Z,10.15
2022-10-03T13:00:21.033Z,10.38
2022-10-03T13:05:41.597Z,10.61
2022-10-03T13:10:54.698Z,10.70
2022-10-03T13:16:13.547Z,10.68
2022-10-03T13:21:44.900Z,10.80
2022-10-03T13:27:05.508Z,10.85
2022-10-03T13:32:13.333Z,10.83
2022-10-03T13:37:22.650Z,10.85
2022-10-03T13:42:39.418Z,10.82
2022-10-03T13:48:14.890Z,10.64
2022-10-03T13:53:50.326Z,10.56
2022-10-03T13:59:25.578Z,10.55
2022-10-03T14:04:57.121Z,10.59
2022-10-03T14:10:10.527Z,10.68
2022-10-03T14:15:27.920Z,10.68
2022-10-03T14:20:41.438Z,10.66
2022-10-03T14:26:05.645Z,10.73
2022-10-03T14:31:35.025Z,10.83
2022-10-03T14:36:49.821Z,10.83
2022-10-03T14:41:52.203Z,10.76
2022-10-03T14:47:09.083Z,10.59
2022-10-03T14:52:26.981Z,10.28
2022-10-03T14:57:39.686Z,10.12
2022-10-03T15:02:51.004Z,10.07
2022-10-03T15:08:13.693Z,10.05
2022-10-03T15:13:22.938Z,10.00
2022-10-03T15:18:33.645Z,9.97
2022-10-03T15:23:43.897Z,9.95
2022-10-03T15:28:50.732Z,9.93
2022-10-03T15:33:54.374Z,9.92
2022-10-03T15:39:01.103Z,9.91
2022-10-03T15:44:13.536Z,9.90
2022-10-03T15:49:30.464Z,9.81
2022-10-03T15:54:38.795Z,9.71
2022-10-03T15:59:45.446Z,9.67
2022-10-03T16:04:48.940Z,9.67
2022-10-03T16:10:06.937Z,9.62
2022-10-03T16:15:21.327Z,9.53
2022-10-03T16:20:29.813Z,9.50
2022-10-03T16:25:49.310Z,9.48
2022-10-03T16:31:00.049Z,9.48
2022-10-03T16:36:05.462Z,9.48
2022-10-03T16:41:10.428Z,9.47
2022-10-03T16:46:21.277Z,9.45
2022-10-03T16:51:46.917Z,9.45
2022-10-03T16:56:57.024Z,9.46
2022-10-03T17:02:06.601Z,9.50
2022-10-03T17:07:15.636Z,9.58
2022-10-03T17:12:39.043Z,9.58
2022-10-03T17:18:34.909Z,9.58
2022-10-03T17:23:49.384Z,9.59
2022-10-03T17:29:08.415Z,9.65
2022-10-03T17:34:23.973Z,9.64
2022-10-03T17:39:35.137Z,9.67
2022-10-03T17:45:09.407Z,9.67
2022-10-03T17:50:17.041Z,9.71
2022-10-03T17:55:27.405Z,9.73
2022-10-03T18:00:45.264Z,9.73
2022-10-03T18:05:52.677Z,9.68
2022-10-03T18:11:05.178Z,9.66
2022-10-03T18:16:39.127Z,9.62
2022-10-03T18:21:44.492Z,9.61
2022-10-03T18:26:54.560Z,9.62
2022-10-03T18:32:02.114Z,9.61
2022-10-03T18:37:25.703Z,9.58
2022-10-03T18:42:29.874Z,9.59
2022-10-03T18:47:44.080Z,9.55
2022-10-03T18:52:52.789Z,9.48
2022-10-03T18:58:09.778Z,9.43
2022-10-03T19:03:16.237Z,9.36
2022-10-03T19:08:30.126Z,9.26
2022-10-03T19:13:37.193Z,9.18
2022-10-03T19:19:01.009Z,9.15
2022-10-03T19:24:13.271Z,9.19
2022-10-03T19:29:23.201Z,9.24
2022-10-03T19:34:38.171Z,9.17
2022-10-03T19:39:41.130Z,9.08
2022-10-03T19:44:44.331Z,9.06
2022-10-03T19:50:04.281Z,9.11
2022-10-03T19:55:33.634Z,9.11
2022-10-03T20:01:00.372Z,9.12
2022-10-03T20:06:11.494Z,9.15
2022-10-03T20:11:39.899Z,9.21
2022-10-03T20:16:46.644Z,9.21
2022-10-03T20:21:57.115Z,9.25
2022-10-03T20:27:30.453Z,9.31
2022-10-03T20:32:42.194Z,9.33
2022-10-03T20:37:52.129Z,9.30
2022-10-03T20:43:09.673Z,9.26
2022-10-03T20:48:22.536Z,9.20
2022-10-03T20:53:27.502Z,9.11
2022-10-03T20:58:42.282Z,9.06
2022-10-03T21:04:20.035Z,9.02
2022-10-03T21:09:39.347Z,9.01
2022-10-03T21:14:43.666Z,9.04
2022-10-03T21:20:01.301Z,9.06
2022-10-03T21:25:08.554Z,9.08
2022-10-03T21:30:18.842Z,9.07
2022-10-03T21:35:29.200Z,9.04
2022-10-03T21:40:49.122Z,9.03
2022-10-03T21:46:15.528Z,9.02
2022-10-03T21:51:49.348Z,9.01
2022-10-03T21:57:12.875Z,9.02
2022-10-03T22:02:37.479Z,9.03
2022-10-03T22:07:41.985Z,9.03
2022-10-03T22:13:07.317Z,9.00
2022-10-03T22:18:15.468Z,9.02
2022-10-03T22:23:23.505Z,9.03
2022-10-03T22:28:46.746Z,9.05
2022-10-03T22:34:08.908Z,9.09
2022-10-03T22:39:15.528Z,9.11
2022-10-03T22:44:21.632Z,9.13
2022-10-03T22:49:35.824Z,9.17
2022-10-03T22:54:40.787Z,9.20
2022-10-03T22:59:48.534Z,9.23
2022-10-03T23:04:55.841Z,9.24
2022-10-03T23:10:12.948Z,9.28
2022-10-03T23:15:36.730Z,9.30
2022-10-03T23:20:59.733Z,9.34
2022-10-03T23:26:23.261Z,9.45
2022-10-03T23:32:03.720Z,9.50
2022-10-03T23:37:11.221Z,9.51
2022-10-03T23:42:33.233Z,9.51
2022-10-03T23:47:47.078Z,9.52
2022-10-03T23:52:58.086Z,9.54
2022-10-03T23:58:00.450Z,9.51
